createdAt,value
2023-04-11T00:01:08.622Z,5.22
2023-04-11T00:03:41.687Z,4.07
2023-04-11T00:06:11.417Z,5.05
2023-04-11T00:08:39.864Z,5.45
2023-04-11T00:11:08.357Z,7.45
2023-04-11T00:13:37.770Z,4.25
2023-04-11T00:16:07.600Z,4.60
2023-04-11T00:18:37.736Z,4.80
2023-04-11T00:21:06.342Z,5.22
2023-04-11T00:23:36.078Z,6.32
2023-04-11T00:26:04.500Z,8.25
2023-04-11T00:28:32.486Z,5.30
2023-04-11T00:31:01.186Z,5.60
2023-04-11T00:33:29.438Z,3.78
2023-04-11T00:35:58.663Z,5.43
2023-04-11T00:38:27.077Z,4.13
2023-04-11T00:40:56.434Z,4.05
2023-04-11T00:43:26.732Z,2.47
2023-04-11T00:45:54.863Z,3.30
2023-04-11T00:48:28.199Z,5.03
2023-04-11T00:50:56.944Z,2.83
2023-04-11T00:53:25.922Z,2.22
2023-04-11T00:55:54.844Z,2.90
2023-04-11T00:58:24.085Z,3.40
2023-04-11T01:00:52.919Z,2.08
2023-04-11T01:03:26.868Z,3.80
2023-04-11T01:05:56.270Z,3.95
2023-04-11T01:08:28.413Z,4.55
2023-04-11T01:10:56.634Z,3.22
2023-04-11T01:13:27.087Z,2.80
2023-04-11T01:15:55.064Z,2.90
2023-04-11T01:18:25.684Z,1.80
2023-04-11T01:20:53.908Z,2.90
2023-04-11T01:23:25.576Z,2.45
2023-04-11T01:25:56.269Z,2.08
2023-04-11T01:28:24.297Z,1.60
2023-04-11T01:30:52.509Z,1.20
2023-04-11T01:33:21.515Z,1.65
2023-04-11T01:35:49.561Z,4.00
2023-04-11T01:38:17.690Z,4.65
2023-04-11T01:40:48.239Z,2.13
2023-04-11T01:43:17.388Z,2.72
2023-04-11T01:45:45.750Z,1.77
2023-04-11T01:48:17.044Z,1.77
2023-04-11T01:50:45.105Z,2.58
2023-04-11T01:53:13.291Z,3.17
2023-04-11T01:55:42.437Z,1.67
2023-04-11T01:58:12.862Z,3.22
2023-04-11T02:00:41.104Z,4.32
2023-04-11T02:03:09.459Z,4.03
2023-04-11T02:05:37.794Z,3.50
2023-04-11T02:08:05.925Z,1.83
2023-04-11T02:10:38.567Z,1.92
2023-04-11T02:13:08.827Z,3.13
2023-04-11T02:15:40.635Z,2.55
2023-04-11T02:18:09.322Z,1.98
2023-04-11T02:20:40.768Z,1.50
2023-04-11T02:23:08.737Z,4.20
2023-04-11T02:25:37.121Z,1.98
2023-04-11T02:28:07.405Z,3.58
2023-04-11T02:30:38.482Z,1.95
2023-04-11T02:33:06.667Z,3.60
2023-04-11T02:35:34.703Z,2.38
2023-04-11T02:38:04.442Z,3.13
2023-04-11T02:40:32.754Z,1.90
2023-04-11T02:43:02.357Z,3.17
2023-04-11T02:45:30.866Z,2.30
2023-04-11T02:48:00.301Z,3.72
2023-04-11T02:50:28.611Z,2.47
2023-04-11T02:52:56.945Z,1.92
2023-04-11T02:55:25.057Z,3.88
2023-04-11T02:57:53.750Z,4.88
2023-04-11T03:00:22.480Z,2.67
2023-04-11T03:02:50.600Z,3.60
2023-04-11T03:05:20.366Z,4.35
2023-04-11T03:07:48.839Z,2.90
2023-04-11T03:10:17.234Z,2.67
2023-04-11T03:12:45.671Z,2.63
2023-04-11T03:15:15.178Z,2.05
2023-04-11T03:17:43.321Z,3.13
2023-04-11T03:20:13.874Z,2.28
2023-04-11T03:22:43.456Z,3.95
2023-04-11T03:25:11.533Z,2.40
2023-04-11T03:27:39.451Z,4.82
2023-04-11T03:30:08.577Z,3.88
2023-04-11T03:32:36.942Z,2.75
2023-04-11T03:35:06.234Z,4.10
2023-04-11T03:37:34.738Z,2.55
2023-04-11T03:40:05.136Z,3.13
2023-04-11T03:42:33.662Z,4.38
2023-04-11T03:45:02.030Z,4.03
2023-04-11T03:47:29.990Z,5.50
2023-04-11T03:49:59.132Z,3.95
2023-04-11T03:52:29.546Z,5.82
2023-04-11T03:54:57.808Z,3.40
2023-04-11T03:57:28.138Z,3.65
2023-04-11T03:59:58.952Z,2.10
2023-04-11T04:02:27.538Z,3.90
2023-04-11T04:04:58.943Z,2.40
2023-04-11T04:07:27.469Z,3.70
2023-04-11T04:09:55.880Z,3.05
2023-04-11T04:12:24.299Z,3.08
2023-04-11T04:14:57.853Z,5.60
2023-04-11T04:17:25.854Z,3.28
2023-04-11T04:19:53.777Z,1.63
2023-04-11T04:22:22.390Z,1.73
2023-04-11T04:24:51.702Z,2.00
2023-04-11T04:27:19.906Z,3.35
2023-04-11T04:29:49.258Z,2.10
2023-04-11T04:34:55.061Z,1.38
2023-04-11T04:37:28.469Z,2.05
2023-04-11T04:39:58.191Z,4.45
2023-04-11T04:42:27.592Z,1.90
2023-04-11T04:44:56.867Z,1.50
2023-04-11T04:47:34.803Z,1.90
2023-04-11T04:50:03.036Z,5.18
2023-04-11T04:52:31.828Z,1.98
2023-04-11T04:55:00.058Z,1.25
2023-04-11T04:57:29.313Z,4.32
2023-04-11T04:59:58.298Z,17.48
2023-04-11T05:02:28.046Z,7.07
2023-04-11T05:04:56.262Z,5.40
2023-04-11T05:07:25.204Z,11.35
2023-04-11T05:09:53.372Z,5.15
2023-04-11T05:12:26.303Z,4.05
2023-04-11T05:14:56.739Z,4.55
2023-04-11T05:17:26.229Z,5.15
2023-04-11T05:19:55.766Z,4.70
2023-04-11T05:22:23.728Z,7.30
2023-04-11T05:24:52.202Z,5.20
2023-04-11T05:27:20.687Z,3.65
2023-04-11T05:29:48.903Z,5.82
2023-04-11T05:32:16.830Z,3.55
2023-04-11T05:34:58.963Z,4.45
2023-04-11T05:37:27.816Z,6.85
2023-04-11T05:39:58.886Z,2.83
2023-04-11T05:42:26.822Z,2.83
2023-04-11T05:44:54.750Z,5.18
2023-04-11T05:47:22.640Z,5.10
2023-04-11T05:49:50.747Z,5.18
2023-04-11T05:52:20.775Z,4.05
2023-04-11T05:54:49.036Z,4.53
2023-04-11T05:57:17.928Z,7.63
2023-04-11T05:59:49.768Z,5.75
2023-04-11T06:02:18.002Z,4.90
2023-04-11T06:04:46.102Z,5.53
2023-04-11T06:07:14.393Z,4.75
2023-04-11T06:09:44.512Z,4.70
2023-04-11T06:12:12.629Z,5.30
2023-04-11T06:14:40.970Z,5.30
2023-04-11T06:17:18.861Z,4.82
2023-04-11T06:19:47.559Z,5.93
2023-04-11T06:22:15.836Z,4.13
2023-04-11T06:24:54.957Z,7.82
2023-04-11T06:27:23.032Z,6.93
2023-04-11T06:29:51.009Z,4.95
2023-04-11T06:32:20.295Z,6.30
2023-04-11T06:34:50.292Z,5.72
2023-04-11T06:37:18.726Z,2.65
2023-04-11T06:39:48.620Z,5.22
2023-04-11T06:42:16.791Z,6.10
2023-04-11T06:44:45.784Z,3.00
2023-04-11T06:47:14.443Z,6.53
2023-04-11T06:49:42.618Z,5.43
2023-04-11T06:52:10.916Z,6.40
2023-04-11T06:54:39.307Z,5.03
2023-04-11T06:57:10.744Z,4.63
2023-04-11T06:59:38.728Z,4.60
2023-04-11T07:02:11.685Z,6.15
2023-04-11T07:04:39.779Z,9.23
2023-04-11T07:07:07.873Z,5.55
2023-04-11T07:09:36.639Z,4.05
2023-04-11T07:12:05.207Z,5.57
2023-04-11T07:14:34.577Z,6.25
2023-04-11T07:17:03.377Z,13.02
2023-04-11T07:19:35.456Z,5.00
2023-04-11T07:22:05.779Z,4.78
2023-04-11T07:24:33.788Z,8.45
2023-04-11T07:27:02.133Z,5.30
2023-04-11T07:29:30.862Z,11.75
2023-04-11T07:32:02.912Z,9.05
2023-04-11T07:34:31.169Z,4.93
2023-04-11T07:37:01.219Z,4.63
2023-04-11T07:39:31.807Z,6.10
2023-04-11T07:42:00.082Z,7.90
2023-04-11T07:44:28.721Z,8.30
2023-04-11T07:46:56.861Z,10.20
2023-04-11T07:49:28.543Z,6.25
2023-04-11T07:51:56.758Z,6.45
2023-04-11T07:54:25.396Z,6.22
2023-04-11T07:56:56.842Z,5.88
2023-04-11T07:59:24.964Z,4.20
2023-04-11T08:02:02.020Z,9.02
2023-04-11T08:04:34.621Z,4.97
2023-04-11T08:07:03.138Z,6.15
2023-04-11T08:09:31.721Z,4.30
2023-04-11T08:12:00.047Z,7.53
2023-04-11T08:14:29.488Z,4.25
2023-04-11T08:16:57.905Z,5.18
2023-04-11T08:19:26.293Z,5.60
2023-04-11T08:21:57.557Z,4.85
2023-04-11T08:24:30.993Z,4.80
2023-04-11T08:26:59.405Z,5.97
2023-04-11T08:29:27.950Z,6.57
2023-04-11T08:31:57.829Z,6.88
2023-04-11T08:34:25.834Z,5.68
2023-04-11T08:36:55.137Z,4.72
2023-04-11T08:39:23.704Z,3.63
2023-04-11T08:41:51.759Z,7.32
2023-04-11T08:44:22.437Z,6.38
2023-04-11T08:46:50.338Z,8.00
2023-04-11T08:49:18.559Z,5.95
2023-04-11T08:51:47.326Z,7.75
2023-04-11T08:54:17.300Z,5.75
2023-04-11T08:56:45.607Z,7.97
2023-04-11T08:59:16.135Z,7.40
2023-04-11T09:01:44.464Z,6.53
2023-04-11T09:04:17.688Z,3.13
2023-04-11T09:07:00.473Z,6.60
2023-04-11T09:09:32.969Z,3.95
2023-04-11T09:12:03.576Z,6.00
2023-04-11T09:14:33.450Z,9.23
2023-04-11T09:17:04.133Z,4.05
2023-04-11T09:19:35.572Z,6.60
2023-04-11T09:22:07.672Z,4.25
2023-04-11T09:24:38.365Z,5.43
2023-04-11T09:27:13.999Z,5.38
2023-04-11T09:29:45.346Z,6.80
2023-04-11T09:32:33.173Z,4.75
2023-04-11T09:35:13.479Z,6.03
2023-04-11T09:37:45.692Z,5.32
2023-04-11T09:40:16.909Z,9.73
2023-04-11T09:42:49.376Z,3.92
2023-04-11T09:45:19.634Z,5.68
2023-04-11T09:47:48.554Z,2.80
2023-04-11T09:50:19.655Z,5.18
2023-04-11T09:52:48.463Z,3.42
2023-04-11T09:55:21.694Z,5.82
2023-04-11T09:57:53.146Z,5.85
2023-04-11T10:00:24.304Z,4.57
2023-04-11T10:02:54.147Z,5.45
2023-04-11T10:05:27.790Z,6.95
2023-04-11T10:08:05.433Z,5.97
2023-04-11T10:10:37.078Z,3.38
2023-04-11T10:13:44.961Z,4.28
2023-04-11T10:16:18.356Z,3.85
2023-04-11T10:19:23.306Z,3.03
2023-04-11T10:21:53.527Z,3.97
2023-04-11T10:24:22.809Z,3.47
2023-04-11T10:26:53.872Z,5.47
2023-04-11T10:29:51.799Z,3.63
2023-04-11T10:32:26.539Z,1.52
2023-04-11T10:35:25.752Z,8.32
2023-04-11T10:37:53.992Z,4.38
2023-04-11T10:40:24.623Z,3.17
2023-04-11T10:42:55.404Z,2.83
2023-04-11T10:45:26.648Z,3.15
2023-04-11T10:48:07.922Z,2.33
2023-04-11T10:50:45.998Z,2.60
2023-04-11T10:53:37.211Z,2.38
2023-04-11T10:56:09.576Z,3.47
2023-04-11T10:58:41.660Z,3.10
2023-04-11T11:01:55.625Z,5.13
2023-04-11T11:04:32.294Z,3.60
2023-04-11T11:07:05.600Z,1.48
2023-04-11T11:09:34.693Z,3.45
2023-04-11T11:12:10.945Z,2.47
2023-04-11T11:14:44.184Z,2.17
2023-04-11T11:17:13.500Z,2.90
2023-04-11T11:19:49.413Z,3.03
2023-04-11T11:22:18.166Z,5.72
2023-04-11T11:24:47.680Z,3.55
2023-04-11T11:27:23.003Z,4.00
2023-04-11T11:29:53.597Z,2.47
2023-04-11T11:32:24.846Z,2.58
2023-04-11T11:34:57.957Z,13.35
2023-04-11T11:39:54.984Z,4.15
2023-04-11T11:42:23.383Z,2.30
2023-04-11T11:44:53.861Z,2.03
2023-04-11T11:47:22.797Z,3.08
2023-04-11T11:49:53.054Z,1.98
2023-04-11T11:52:34.380Z,2.60
2023-04-11T11:55:06.856Z,4.15
2023-04-11T11:57:36.937Z,5.47
2023-04-11T12:00:10.749Z,3.08
2023-04-11T12:02:43.073Z,3.60
2023-04-11T12:05:13.194Z,3.10
2023-04-11T12:07:42.318Z,1.83
2023-04-11T12:10:16.647Z,2.90
2023-04-11T12:12:53.594Z,5.18
2023-04-11T12:15:25.486Z,4.13
2023-04-11T12:17:55.779Z,4.53
2023-04-11T12:20:24.342Z,3.25
2023-04-11T12:22:54.646Z,5.65
2023-04-11T12:25:26.479Z,4.90
2023-04-11T12:27:55.164Z,3.80
2023-04-11T12:30:24.784Z,3.28
2023-04-11T12:32:52.912Z,1.85
2023-04-11T12:35:21.060Z,3.72
2023-04-11T12:37:49.493Z,3.30
2023-04-11T12:40:17.783Z,3.25
2023-04-11T12:42:56.174Z,3.55
2023-04-11T12:45:30.334Z,4.22
2023-04-11T12:47:58.274Z,4.43
2023-04-11T12:50:26.888Z,5.63
2023-04-11T12:52:57.206Z,5.90
2023-04-11T12:55:25.611Z,6.13
2023-04-11T12:57:53.883Z,3.67
2023-04-11T13:00:22.802Z,4.85
2023-04-11T13:02:55.906Z,3.55
2023-04-11T13:05:26.060Z,4.03
2023-04-11T13:07:54.106Z,2.63
2023-04-11T13:10:22.454Z,2.08
2023-04-11T13:12:53.243Z,4.68
2023-04-11T13:15:21.828Z,3.13
2023-04-11T13:17:53.572Z,3.25
2023-04-11T13:20:22.239Z,3.05
2023-04-11T13:22:50.526Z,2.88
2023-04-11T13:25:19.355Z,2.75
2023-04-11T13:27:47.734Z,3.97
2023-04-11T13:30:16.276Z,4.20
2023-04-11T13:32:44.461Z,1.73
2023-04-11T13:35:14.380Z,2.40
2023-04-11T13:37:42.461Z,2.92
2023-04-11T13:40:14.684Z,3.95
2023-04-11T13:42:46.077Z,2.10
2023-04-11T13:45:14.251Z,1.70
2023-04-11T13:47:42.417Z,3.30
2023-04-11T13:50:11.164Z,1.98
2023-04-11T13:52:43.167Z,2.40
2023-04-11T13:55:14.276Z,2.13
2023-04-11T13:57:43.240Z,5.97
2023-04-11T14:00:12.695Z,5.85
2023-04-11T14:02:40.990Z,5.95
2023-04-11T14:05:13.009Z,3.10
2023-04-11T14:07:44.655Z,3.60
2023-04-11T14:10:12.695Z,2.80
2023-04-11T14:12:40.907Z,3.58
2023-04-11T14:15:10.369Z,5.18
2023-04-11T14:17:38.319Z,3.47
2023-04-11T14:20:08.766Z,2.70
2023-04-11T14:22:38.206Z,2.85
2023-04-11T14:25:10.446Z,6.15
2023-04-11T14:27:38.527Z,3.97
2023-04-11T14:30:10.055Z,2.80
2023-04-11T14:32:38.612Z,4.82
2023-04-11T14:35:08.719Z,3.38
2023-04-11T14:37:37.848Z,4.15
2023-04-11T14:40:11.366Z,4.95
2023-04-11T14:42:41.757Z,4.30
2023-04-11T14:45:11.380Z,2.72
2023-04-11T14:47:40.340Z,4.65
2023-04-11T14:50:10.862Z,5.82
2023-04-11T14:52:39.433Z,6.53
2023-04-11T14:55:10.304Z,6.55
2023-04-11T14:57:46.529Z,4.47
2023-04-11T15:00:20.318Z,3.33
2023-04-11T15:02:49.520Z,5.47
2023-04-11T15:05:18.545Z,4.18
2023-04-11T15:07:48.217Z,3.55
2023-04-11T15:10:20.092Z,4.57
2023-04-11T15:12:48.110Z,4.75
2023-04-11T15:15:17.664Z,4.68
2023-04-11T15:17:48.745Z,2.88
2023-04-11T15:20:19.630Z,4.03
2023-04-11T15:22:49.399Z,6.68
2023-04-11T15:25:21.460Z,4.38
2023-04-11T15:27:52.120Z,5.60
2023-04-11T15:30:20.089Z,3.35
2023-04-11T15:32:48.084Z,2.47
2023-04-11T15:35:16.067Z,5.03
2023-04-11T15:37:44.349Z,6.22
2023-04-11T15:40:15.333Z,4.80
2023-04-11T15:42:45.339Z,4.72
2023-04-11T15:45:15.003Z,5.82
2023-04-11T15:47:45.617Z,4.03
2023-04-11T15:50:15.629Z,4.60
2023-04-11T15:52:43.784Z,4.05
2023-04-11T15:55:11.693Z,4.25
2023-04-11T15:57:41.707Z,3.22
2023-04-11T16:00:13.454Z,2.95
2023-04-11T16:02:46.714Z,3.22
2023-04-11T16:05:15.561Z,4.15
2023-04-11T16:07:43.775Z,2.60
2023-04-11T16:10:12.458Z,2.58
2023-04-11T16:12:40.827Z,3.00
2023-04-11T16:15:09.982Z,3.35
2023-04-11T16:17:39.474Z,4.07
2023-04-11T16:20:12.127Z,5.97
2023-04-11T16:22:40.481Z,3.25
2023-04-11T16:25:09.430Z,4.00
2023-04-11T16:27:37.465Z,5.45
2023-04-11T16:30:07.822Z,2.13
2023-04-11T16:32:36.445Z,7.22
2023-04-11T16:35:08.285Z,4.00
2023-04-11T16:37:36.542Z,5.10
2023-04-11T16:40:11.110Z,5.25
2023-04-11T16:42:40.096Z,3.20
2023-04-11T16:45:10.296Z,3.80
2023-04-11T16:47:38.531Z,2.28
2023-04-11T16:50:10.073Z,4.70
2023-04-11T16:52:38.336Z,4.10
2023-04-11T16:55:07.195Z,3.92
2023-04-11T16:57:43.449Z,3.78
2023-04-11T17:00:18.995Z,3.25
2023-04-11T17:02:47.537Z,3.38
2023-04-11T17:05:19.276Z,2.90
2023-04-11T17:07:48.061Z,4.45
2023-04-11T17:10:16.888Z,6.03
2023-04-11T17:12:45.276Z,2.05
2023-04-11T17:15:13.764Z,3.42
2023-04-11T17:17:46.569Z,5.03
2023-04-11T17:20:19.640Z,5.80
2023-04-11T17:22:49.873Z,6.35
2023-04-11T17:25:18.694Z,4.97
2023-04-11T17:27:47.180Z,2.80
2023-04-11T17:30:16.334Z,5.43
2023-04-11T17:32:45.727Z,5.93
2023-04-11T17:35:13.761Z,4.80
2023-04-11T17:37:44.533Z,4.75
2023-04-11T17:40:17.393Z,6.47
2023-04-11T17:42:45.974Z,4.30
2023-04-11T17:45:18.775Z,2.60
2023-04-11T17:47:47.980Z,3.10
2023-04-11T17:50:17.093Z,4.18
2023-04-11T17:52:52.087Z,5.25
2023-04-11T17:55:21.017Z,7.65
2023-04-11T17:57:50.436Z,4.60
2023-04-11T18:00:23.138Z,3.42
2023-04-11T18:02:52.944Z,6.28
2023-04-11T18:05:25.275Z,8.27
2023-04-11T18:07:56.398Z,5.85
2023-04-11T18:10:25.839Z,3.17
2023-04-11T18:12:55.366Z,4.53
2023-04-11T18:15:23.897Z,3.50
2023-04-11T18:17:53.186Z,4.07
2023-04-11T18:20:22.753Z,7.45
2023-04-11T18:22:56.180Z,5.78
2023-04-11T18:25:25.945Z,4.78
2023-04-11T18:27:55.017Z,6.07
2023-04-11T18:30:23.321Z,5.25
2023-04-11T18:32:53.849Z,5.63
2023-04-11T18:35:25.185Z,5.20
2023-04-11T18:37:54.032Z,4.00
2023-04-11T18:40:22.022Z,5.68
2023-04-11T18:42:52.989Z,5.43
2023-04-11T18:45:24.778Z,6.40
2023-04-11T18:47:56.207Z,5.55
2023-04-11T18:50:24.634Z,7.90
2023-04-11T18:52:56.160Z,8.05
2023-04-11T18:55:26.736Z,5.85
2023-04-11T18:57:59.306Z,4.40
2023-04-11T19:00:30.350Z,4.20
2023-04-11T19:02:58.992Z,4.80
2023-04-11T19:05:28.187Z,9.88
2023-04-11T19:07:56.924Z,4.72
2023-04-11T19:10:25.655Z,8.45
2023-04-11T19:12:55.303Z,6.05
2023-04-11T19:15:23.876Z,7.07
2023-04-11T19:17:53.326Z,8.63
2023-04-11T19:20:22.704Z,4.32
2023-04-11T19:22:52.540Z,6.30
2023-04-11T19:25:21.208Z,6.90
2023-04-11T19:27:50.195Z,5.28
2023-04-11T19:30:19.839Z,4.30
2023-04-11T19:32:48.604Z,3.38
2023-04-11T19:35:16.660Z,4.88
2023-04-11T19:37:45.542Z,5.50
2023-04-11T19:40:14.573Z,5.63
2023-04-11T19:42:43.154Z,3.85
2023-04-11T19:45:12.466Z,5.93
2023-04-11T19:47:44.613Z,3.13
2023-04-11T19:50:14.095Z,4.33
2023-04-11T19:52:44.008Z,4.93
2023-04-11T19:55:12.912Z,5.78
2023-04-11T19:57:43.519Z,3.97
2023-04-11T20:00:17.488Z,4.28
2023-04-11T20:02:49.111Z,6.53
2023-04-11T20:05:19.192Z,4.53
2023-04-11T20:07:48.236Z,5.60
2023-04-11T20:10:17.758Z,8.25
2023-04-11T20:12:46.129Z,6.53
2023-04-11T20:15:16.053Z,6.45
2023-04-11T20:17:46.092Z,13.40
2023-04-11T20:20:19.795Z,27.20
2023-04-11T20:22:48.110Z,28.98
2023-04-11T20:25:16.265Z,31.63
2023-04-11T20:27:45.860Z,25.90
2023-04-11T20:30:17.460Z,17.30
2023-04-11T20:32:46.275Z,19.17
2023-04-11T20:35:15.794Z,13.13
2023-04-11T20:37:45.309Z,12.25
2023-04-11T20:40:15.665Z,10.70
2023-04-11T20:42:45.801Z,5.53
2023-04-11T20:45:20.478Z,5.53
2023-04-11T20:47:50.167Z,6.88
2023-04-11T20:50:23.504Z,7.53
2023-04-11T20:55:22.155Z,5.80
2023-04-11T20:57:52.436Z,5.55
2023-04-11T21:00:21.544Z,7.30
2023-04-11T21:02:51.665Z,8.23
2023-04-11T21:05:22.555Z,6.38
2023-04-11T21:07:54.322Z,6.40
2023-04-11T21:10:22.854Z,8.70
2023-04-11T21:12:54.117Z,12.27
2023-04-11T21:15:23.155Z,7.93
2023-04-11T21:17:52.409Z,8.38
2023-04-11T21:20:22.514Z,9.07
2023-04-11T21:22:54.438Z,8.18
2023-04-11T21:25:25.640Z,6.88
2023-04-11T21:27:54.588Z,11.15
2023-04-11T21:30:24.120Z,7.43
2023-04-11T21:32:52.218Z,5.90
2023-04-11T21:35:21.874Z,6.63
2023-04-11T21:37:53.094Z,6.60
2023-04-11T21:40:23.046Z,8.50
2023-04-11T21:42:51.078Z,10.77
2023-04-11T21:45:19.203Z,10.90
2023-04-11T21:47:48.743Z,7.68
2023-04-11T21:50:18.094Z,7.90
2023-04-11T21:52:47.746Z,6.72
2023-04-11T21:55:16.637Z,6.82
2023-04-11T21:57:48.237Z,12.90
2023-04-11T22:00:17.587Z,7.70
2023-04-11T22:02:45.984Z,4.07
2023-04-11T22:05:17.416Z,5.70
2023-04-11T22:07:47.825Z,8.32
2023-04-11T22:10:22.040Z,6.60
2023-04-11T22:12:50.350Z,5.05
2023-04-11T22:15:21.528Z,6.75
2023-04-11T22:17:56.266Z,7.18
2023-04-11T22:20:25.863Z,8.93
2023-04-11T22:22:56.849Z,5.75
2023-04-11T22:25:25.373Z,6.35
2023-04-11T22:27:54.725Z,6.35
2023-04-11T22:30:24.687Z,5.32
2023-04-11T22:32:55.557Z,9.20
2023-04-11T22:35:26.078Z,4.60
2023-04-11T22:37:57.250Z,5.38
2023-04-11T22:40:25.866Z,6.05
2023-04-11T22:42:55.084Z,5.47
2023-04-11T22:45:25.954Z,8.02
2023-04-11T22:47:55.620Z,7.32
2023-04-11T22:50:26.356Z,5.60
2023-04-11T22:52:55.946Z,5.53
2023-04-11T22:55:24.748Z,8.48
2023-04-11T22:57:53.583Z,7.13
2023-04-11T23:00:26.368Z,7.43
2023-04-11T23:02:54.526Z,9.25
2023-04-11T23:05:23.121Z,8.18
2023-04-11T23:07:51.827Z,7.88
2023-04-11T23:10:26.345Z,6.35
2023-04-11T23:12:54.565Z,7.63
2023-04-11T23:15:22.782Z,8.60
2023-04-11T23:17:53.573Z,7.25
2023-04-11T23:20:22.194Z,6.35
2023-04-11T23:22:51.581Z,7.55
2023-04-11T23:25:21.007Z,5.47
2023-04-11T23:27:49.224Z,4.82
2023-04-11T23:30:17.901Z,10.30
2023-04-11T23:32:46.154Z,5.78
2023-04-11T23:35:17.334Z,5.20
2023-04-11T23:37:48.178Z,4.95
2023-04-11T23:40:17.015Z,9.65
2023-04-11T23:42:47.560Z,9.82
2023-04-11T23:45:20.423Z,10.32
2023-04-11T23:47:48.322Z,16.65
2023-04-11T23:50:17.903Z,11.57
2023-04-11T23:52:46.669Z,7.55
2023-04-11T23:55:15.630Z,5.72
2023-04-11T23:57:46.359Z,6.70
